Time;durP1;ratioP1;P1;durP2;ratioP2;P2;SDS_P1;SDS_P2;PMS_P1;PMS_P2;Temp;Humidity;BMP_temperature;BMP_pressure;BME280_temperature;BME280_humidity;BME280_pressure;Samples;Min_cycle;Max_cycle;Signal;HPM_P1;HPM_P2
2022/12/11 00:01:29;;;;;;;67.88;20.00;;;-0.70;99.90;;;;;;4945076;28;20043;-82
2022/12/11 00:03:55;;;;;;;71.38;19.88;;;-0.70;99.90;;;;;;4946227;28;20055;-83
2022/12/11 00:06:21;;;;;;;64.40;19.08;;;-0.60;99.90;;;;;;4946210;28;20074;-82
2022/12/11 00:08:49;;;;;;;59.92;18.35;;;-0.70;99.90;;;;;;4929794;28;20137;-82
2022/12/11 00:11:15;;;;;;;56.35;17.42;;;-0.10;99.90;;;;;;4945048;28;20518;-82
2022/12/11 00:13:41;;;;;;;58.95;17.48;;;0.80;99.90;;;;;;4945385;28;20047;-82
2022/12/11 00:16:07;;;;;;;61.30;17.48;;;0.50;99.90;;;;;;4929863;28;20102;-83
2022/12/11 00:18:33;;;;;;;59.97;18.17;;;-0.60;99.90;;;;;;4961142;28;20046;-82
2022/12/11 00:21:02;;;;;;;65.35;17.42;;;-0.60;99.90;;;;;;4929136;28;20099;-82
2022/12/11 00:23:28;;;;;;;59.58;17.35;;;-0.60;99.90;;;;;;4929931;28;20071;-82
2022/12/11 00:25:53;;;;;;;68.63;18.40;;;0.30;99.90;;;;;;4929087;28;20498;-82
2022/12/11 00:28:20;;;;;;;56.90;18.83;;;-0.60;99.90;;;;;;4928914;28;20126;-82
2022/12/11 00:30:45;;;;;;;67.40;19.92;;;-0.60;99.90;;;;;;4929396;28;20104;-82
2022/12/11 00:33:11;;;;;;;62.13;18.35;;;-0.50;99.90;;;;;;4945179;28;20491;-82
2022/12/11 00:35:38;;;;;;;65.25;17.13;;;-0.50;99.90;;;;;;4929424;28;20059;-82
2022/12/11 00:38:04;;;;;;;65.32;17.85;;;-0.10;99.90;;;;;;4929333;28;20054;-83
2022/12/11 00:40:35;;;;;;;70.72;18.15;;;-0.50;99.90;;;;;;4929087;28;20391;-82
2022/12/11 00:43:01;;;;;;;65.53;18.73;;;-0.50;99.90;;;;;;4930236;28;20090;-82
2022/12/11 00:45:26;;;;;;;58.60;17.30;;;0.90;99.90;;;;;;4960555;28;20078;-82
2022/12/11 00:47:52;;;;;;;70.00;18.15;;;-0.50;99.90;;;;;;4929003;28;20078;-82
2022/12/11 00:50:18;;;;;;;62.13;17.90;;;-0.40;99.90;;;;;;4944719;28;20053;-82
2022/12/11 00:52:43;;;;;;;59.13;17.67;;;-0.40;99.90;;;;;;4928536;28;20128;-82
2022/12/11 00:55:09;;;;;;;69.47;18.30;;;-0.40;99.90;;;;;;4945075;28;20051;-82
2022/12/11 00:57:35;;;;;;;67.75;18.63;;;-0.40;99.90;;;;;;4960655;28;20097;-82
2022/12/11 01:00:01;;;;;;;63.60;18.00;;;-0.40;99.90;;;;;;4928720;28;20050;-82
2022/12/11 01:02:26;;;;;;;61.70;18.33;;;0.20;99.90;;;;;;4944725;28;20043;-83
2022/12/11 01:04:52;;;;;;;64.35;19.00;;;0.50;99.90;;;;;;4960549;28;20059;-83
2022/12/11 01:07:18;;;;;;;65.95;17.70;;;-0.40;99.90;;;;;;4944788;28;20090;-82
2022/12/11 01:12:27;;;;;;;57.10;18.02;;;1.00;99.90;;;;;;4933525;28;20430;-83
2022/12/11 01:14:53;;;;;;;59.17;17.30;;;-0.20;99.90;;;;;;4960384;28;20109;-81
2022/12/11 01:17:19;;;;;;;63.03;17.67;;;-0.40;99.90;;;;;;4913462;28;20518;-83
2022/12/11 01:19:44;;;;;;;63.75;18.55;;;-0.30;99.90;;;;;;4960475;28;20127;-82
2022/12/11 01:22:10;;;;;;;63.88;17.73;;;-0.30;99.90;;;;;;4927985;28;20487;-83
2022/12/11 01:24:36;;;;;;;70.28;18.20;;;-0.30;99.90;;;;;;4928192;28;20039;-83
2022/12/11 01:27:03;;;;;;;69.43;19.35;;;0.60;99.90;;;;;;4944256;28;20072;-82
2022/12/11 01:29:28;;;;;;;70.00;18.83;;;-0.30;99.90;;;;;;4944690;28;20053;-82
2022/12/11 01:31:54;;;;;;;65.95;17.83;;;-0.30;99.90;;;;;;4943716;28;20394;-82
2022/12/11 01:34:20;;;;;;;71.75;19.38;;;-0.30;99.90;;;;;;4960036;28;20057;-82
2022/12/11 01:36:45;;;;;;;71.07;19.45;;;0.50;99.90;;;;;;4959844;28;20047;-81
2022/12/11 01:39:11;;;;;;;66.97;18.95;;;0.30;99.90;;;;;;4927964;28;20130;-82
2022/12/11 01:41:37;;;;;;;78.10;18.55;;;0.90;99.90;;;;;;4960146;28;20082;-82
2022/12/11 01:44:03;;;;;;;68.05;18.58;;;-0.30;99.90;;;;;;4943543;28;20042;-81
2022/12/11 01:46:30;;;;;;;74.20;18.38;;;-0.30;99.90;;;;;;4944514;28;20046;-82
2022/12/11 01:48:56;;;;;;;66.63;18.23;;;1.20;99.90;;;;;;4928870;28;20146;-82
2022/12/11 01:51:22;;;;;;;65.22;18.38;;;-0.20;99.90;;;;;;4928252;28;20069;-82
2022/12/11 01:53:50;;;;;;;64.75;18.63;;;-0.20;99.90;;;;;;4944558;28;20051;-83
2022/12/11 01:56:16;;;;;;;65.55;17.35;;;-0.20;99.90;;;;;;4928351;28;20051;-83
2022/12/11 01:59:06;;;;;;;67.03;17.48;;;-0.20;99.90;;;;;;4912357;28;20177;-82
2022/12/11 02:01:41;;;;;;;70.65;17.92;;;-0.20;99.90;;;;;;4928571;28;20483;-82
2022/12/11 02:04:07;;;;;;;72.38;18.23;;;-0.20;99.90;;;;;;4928209;28;20043;-83
2022/12/11 02:06:37;;;;;;;77.35;18.30;;;1.10;99.90;;;;;;4927837;28;20491;-83
2022/12/11 02:09:05;;;;;;;78.18;18.20;;;-0.20;99.90;;;;;;4912527;28;20141;-83
2022/12/11 02:11:39;;;;;;;64.18;16.65;;;-0.20;99.90;;;;;;4943602;28;20082;-83
2022/12/11 02:14:12;;;;;;;62.45;17.83;;;-0.20;99.90;;;;;;4912386;28;20529;-83
2022/12/11 02:16:50;;;;;;;67.80;18.30;;;-0.20;99.90;;;;;;4928352;28;20058;-83
2022/12/11 02:19:37;;;;;;;66.07;18.17;;;-0.10;99.90;;;;;;4929322;28;20070;-83
2022/12/11 02:22:03;;;;;;;59.35;17.70;;;-0.10;99.90;;;;;;4928186;28;20201;-82
2022/12/11 02:24:34;;;;;;;61.83;17.17;;;-0.10;99.90;;;;;;4911673;28;20112;-83
2022/12/11 02:27:22;;;;;;;71.20;17.65;;;-0.10;99.90;;;;;;4959833;28;20043;-83
2022/12/11 02:29:55;;;;;;;61.97;17.05;;;0.60;99.90;;;;;;4942939;28;20058;-83
2022/12/11 02:32:26;;;;;;;60.97;17.00;;;-0.10;99.90;;;;;;4943356;28;20064;-82
2022/12/11 02:35:12;;;;;;;62.70;17.27;;;-0.10;99.90;;;;;;4927932;28;20105;-83
2022/12/11 02:37:40;;;;;;;65.55;17.73;;;-0.10;99.90;;;;;;4929703;28;20451;-83
2022/12/11 02:40:07;;;;;;;58.28;17.02;;;-0.10;99.90;;;;;;4927260;28;20051;-82
2022/12/11 02:42:32;;;;;;;69.75;17.30;;;-0.10;99.90;;;;;;4942354;28;20057;-83
2022/12/11 02:44:59;;;;;;;62.42;16.08;;;-0.10;99.90;;;;;;4942385;28;20121;-83
2022/12/11 02:47:25;;;;;;;58.40;17.63;;;-0.10;99.90;;;;;;4926563;28;20402;-83
2022/12/11 02:49:51;;;;;;;68.57;18.30;;;0.20;99.90;;;;;;4926875;28;20203;-81
2022/12/11 02:52:18;;;;;;;60.78;17.35;;;-0.10;99.90;;;;;;4911202;28;20145;-82
2022/12/11 02:54:44;;;;;;;65.93;17.45;;;-0.10;99.90;;;;;;4927395;28;20407;-82
2022/12/11 02:57:23;;;;;;;67.85;17.80;;;0.40;99.90;;;;;;4926951;28;20133;-82
2022/12/11 02:59:48;;;;;;;63.50;17.40;;;0.00;99.90;;;;;;4927160;28;20101;-83
2022/12/11 03:02:15;;;;;;;66.32;18.02;;;0.00;99.90;;;;;;4926602;28;20086;-84
2022/12/11 03:04:40;;;;;;;64.35;18.02;;;0.20;99.90;;;;;;4942081;28;20046;-83
2022/12/11 03:07:14;;;;;;;78.88;17.50;;;0.00;99.90;;;;;;4942424;28;20054;-82
2022/12/11 03:09:44;;;;;;;72.75;17.70;;;0.00;99.90;;;;;;4927294;28;20133;-83
2022/12/11 03:12:11;;;;;;;65.50;17.30;;;0.00;99.90;;;;;;4910954;28;20046;-83
2022/12/11 03:14:37;;;;;;;68.10;17.77;;;0.00;99.90;;;;;;4942879;28;20093;-83
2022/12/11 03:17:13;;;;;;;68.30;17.13;;;0.20;99.90;;;;;;4926970;28;20050;-83
2022/12/11 03:20:05;;;;;;;67.75;18.70;;;0.00;99.90;;;;;;4958305;28;20054;-83
2022/12/11 03:22:36;;;;;;;62.30;18.23;;;0.00;99.90;;;;;;4926350;28;20086;-82
2022/12/11 03:25:04;;;;;;;59.10;17.20;;;0.90;99.90;;;;;;4927153;28;20062;-83
2022/12/11 03:27:33;;;;;;;65.10;18.05;;;0.00;99.90;;;;;;4942083;28;20560;-83
2022/12/11 03:30:07;;;;;;;76.88;18.15;;;0.00;99.90;;;;;;4910748;28;20134;-83
2022/12/11 03:32:39;;;;;;;63.03;16.13;;;0.10;99.90;;;;;;4927999;28;20420;-82
2022/12/11 03:35:22;;;;;;;63.67;17.23;;;0.00;99.90;;;;;;4926456;28;20410;-83
2022/12/11 03:37:47;;;;;;;65.35;17.30;;;0.00;99.90;;;;;;4943645;28;20386;-83
2022/12/11 03:40:15;;;;;;;67.43;18.13;;;0.70;99.90;;;;;;4910615;28;20137;-84
2022/12/11 03:42:41;;;;;;;70.90;18.15;;;0.00;99.90;;;;;;4926209;28;20131;-82
2022/12/11 03:45:07;;;;;;;75.68;17.88;;;0.30;99.90;;;;;;4926396;28;20047;-83
2022/12/11 03:47:33;;;;;;;74.43;19.23;;;0.00;99.90;;;;;;4926810;28;20081;-83
2022/12/11 03:49:59;;;;;;;67.80;18.42;;;0.80;99.90;;;;;;4926761;28;20082;-83
2022/12/11 03:52:26;;;;;;;74.90;18.92;;;0.70;99.90;;;;;;4926038;28;20039;-83
2022/12/11 03:54:51;;;;;;;66.25;18.65;;;0.10;99.90;;;;;;4926046;28;20050;-83
2022/12/11 03:57:19;;;;;;;80.78;19.42;;;0.10;99.90;;;;;;4942197;28;20408;-83
2022/12/11 03:59:45;;;;;;;73.00;18.48;;;0.10;99.90;;;;;;4926124;28;20051;-82
2022/12/11 04:02:11;;;;;;;93.45;19.13;;;0.10;99.90;;;;;;4925846;28;20062;-82
2022/12/11 04:04:40;;;;;;;77.30;18.67;;;0.10;99.90;;;;;;4941787;28;20050;-83
2022/12/11 04:07:06;;;;;;;77.07;19.08;;;0.10;99.90;;;;;;4941416;28;20070;-83
2022/12/11 04:09:32;;;;;;;88.68;19.15;;;1.40;99.90;;;;;;4941573;28;20130;-83
2022/12/11 04:11:58;;;;;;;85.20;18.98;;;0.10;99.90;;;;;;4942352;28;20138;-82
2022/12/11 04:17:07;;;;;;;66.72;18.38;;;0.10;99.90;;;;;;4957707;28;20065;-84
2022/12/11 04:25:02;;;;;;;;;;;1.30;99.90;;;;;;4928132;29;20051;-83
2022/12/11 04:30:14;;;;;;;70.60;18.75;;;0.30;99.90;;;;;;4941728;29;20051;-83
2022/12/11 04:32:39;;;;;;;79.45;17.92;;;0.10;99.90;;;;;;4938405;29;20054;-83
2022/12/11 04:35:06;;;;;;;77.13;19.10;;;0.10;99.90;;;;;;4922166;29;20047;-83
2022/12/11 04:37:32;;;;;;;70.50;18.70;;;0.10;99.90;;;;;;4922198;29;20134;-82
2022/12/11 04:39:58;;;;;;;75.13;18.52;;;0.10;99.90;;;;;;4938012;29;20086;-83
2022/12/11 04:42:23;;;;;;;81.30;18.73;;;0.20;99.90;;;;;;4938285;29;20069;-82
2022/12/11 04:44:49;;;;;;;69.03;19.27;;;0.20;99.90;;;;;;4937754;29;20049;-83
2022/12/11 04:47:15;;;;;;;69.55;19.13;;;0.20;99.90;;;;;;4924744;29;20047;-83
2022/12/11 04:49:41;;;;;;;74.63;18.85;;;0.20;99.90;;;;;;4941642;29;20131;-83
2022/12/11 04:52:06;;;;;;;75.68;19.02;;;0.20;99.90;;;;;;4942311;29;20102;-84
2022/12/11 04:54:32;;;;;;;72.13;19.08;;;1.20;99.90;;;;;;4942225;29;20047;-83
2022/12/11 04:56:57;;;;;;;73.20;18.77;;;1.40;99.90;;;;;;4941331;29;20043;-83
2022/12/11 04:59:23;;;;;;;80.82;19.85;;;0.20;99.90;;;;;;4925398;29;20110;-83
2022/12/11 05:01:49;;;;;;;77.47;19.73;;;0.20;99.90;;;;;;4941716;29;20043;-83
2022/12/11 05:04:14;;;;;;;74.88;18.85;;;0.90;99.90;;;;;;4941398;29;20047;-82
2022/12/11 05:06:40;;;;;;;74.40;18.40;;;0.20;99.90;;;;;;4941302;29;20047;-83
2022/12/11 05:09:09;;;;;;;81.40;21.20;;;0.20;99.90;;;;;;4909805;29;20054;-83
2022/12/11 05:11:35;;;;;;;73.95;18.23;;;0.20;99.90;;;;;;4941168;29;20492;-83
2022/12/11 05:14:00;;;;;;;76.18;19.00;;;1.50;99.90;;;;;;4910461;29;20380;-83
2022/12/11 05:16:26;;;;;;;70.20;19.02;;;1.20;99.90;;;;;;4957324;29;20058;-83
2022/12/11 05:18:52;;;;;;;79.35;20.65;;;1.20;99.90;;;;;;4925682;29;20039;-83
2022/12/11 05:21:17;;;;;;;80.82;19.75;;;1.10;99.90;;;;;;4925662;29;20123;-83
2022/12/11 05:23:43;;;;;;;74.55;17.52;;;1.50;99.90;;;;;;4924771;29;20052;-84
2022/12/11 05:26:14;;;;;;;78.93;19.77;;;0.30;99.90;;;;;;4925078;29;20047;-84
2022/12/11 05:28:39;;;;;;;78.13;19.30;;;1.00;99.90;;;;;;4925944;29;20375;-82
2022/12/11 05:31:16;;;;;;;68.40;18.83;;;1.20;99.90;;;;;;4925017;29;20055;-83
2022/12/11 05:33:42;;;;;;;75.70;18.65;;;0.20;99.90;;;;;;4925961;29;20055;-83
2022/12/11 05:36:08;;;;;;;73.38;20.25;;;0.70;99.90;;;;;;4924981;29;20533;-83
2022/12/11 05:38:34;;;;;;;64.60;17.95;;;0.20;99.90;;;;;;4940473;29;20135;-83
2022/12/11 05:41:01;;;;;;;74.38;19.60;;;1.80;99.90;;;;;;4909227;29;20130;-83
2022/12/11 05:43:27;;;;;;;75.68;19.15;;;1.80;99.90;;;;;;4925741;29;20535;-83
2022/12/11 05:45:53;;;;;;;63.78;17.25;;;0.30;99.90;;;;;;4956633;29;20078;-83
2022/12/11 05:48:19;;;;;;;69.72;19.45;;;0.30;99.90;;;;;;4924519;29;20035;-84
2022/12/11 05:50:54;;;;;;;73.28;20.15;;;0.30;99.90;;;;;;4940834;29;20102;-84
2022/12/11 05:53:20;;;;;;;64.30;18.88;;;1.40;99.90;;;;;;4926460;29;20058;-83
2022/12/11 05:55:45;;;;;;;70.00;19.15;;;1.50;99.90;;;;;;4925204;29;20051;-83
2022/12/11 05:58:11;;;;;;;68.70;18.85;;;0.30;99.90;;;;;;4955536;28;20387;-83
2022/12/11 06:00:39;;;;;;;70.07;19.35;;;0.20;99.90;;;;;;4939851;29;20051;-83
2022/12/11 06:03:05;;;;;;;71.10;19.52;;;1.40;99.90;;;;;;4925243;29;20058;-83
2022/12/11 06:05:31;;;;;;;64.60;18.25;;;1.20;99.90;;;;;;4924293;29;20047;-83
2022/12/11 06:07:57;;;;;;;70.82;19.20;;;0.30;99.90;;;;;;4939922;29;20047;-83
2022/12/11 06:10:22;;;;;;;64.15;19.95;;;0.80;99.90;;;;;;4940352;29;20062;-83
2022/12/11 06:12:48;;;;;;;60.90;18.00;;;0.60;99.90;;;;;;4940722;29;20468;-82
2022/12/11 06:15:13;;;;;;;73.07;19.77;;;0.40;99.90;;;;;;4939973;29;20051;-83
2022/12/11 06:17:39;;;;;;;67.72;20.17;;;0.30;99.90;;;;;;4925397;29;20039;-83
2022/12/11 06:20:05;;;;;;;71.60;22.00;;;1.60;99.90;;;;;;4956708;29;20043;-83
2022/12/11 06:22:31;;;;;;;72.03;22.65;;;0.30;99.90;;;;;;4939921;29;20091;-83
2022/12/11 06:24:56;;;;;;;70.07;22.40;;;0.40;99.90;;;;;;4940156;29;20161;-83
2022/12/11 06:27:22;;;;;;;67.70;19.00;;;1.00;99.90;;;;;;4924511;29;20051;-83
2022/12/11 06:29:48;;;;;;;74.63;19.17;;;0.30;99.90;;;;;;4940646;29;20142;-84
2022/12/11 06:32:14;;;;;;;71.18;18.20;;;1.30;99.90;;;;;;4923905;29;20134;-83
2022/12/11 06:34:39;;;;;;;69.82;19.23;;;0.30;99.90;;;;;;4955209;29;20123;-83
2022/12/11 06:37:06;;;;;;;75.47;19.20;;;0.30;99.90;;;;;;4956233;29;20055;-84
2022/12/11 06:39:31;;;;;;;68.55;19.92;;;1.50;99.90;;;;;;4940911;29;20047;-83
2022/12/11 06:41:57;;;;;;;69.93;20.13;;;0.30;99.90;;;;;;4940730;29;20530;-83
2022/12/11 06:44:23;;;;;;;68.95;17.40;;;0.30;99.90;;;;;;4941311;29;20137;-83
2022/12/11 06:46:49;;;;;;;55.85;17.13;;;0.30;99.90;;;;;;4940434;29;20090;-83
2022/12/11 06:49:15;;;;;;;68.38;18.98;;;1.60;99.90;;;;;;4924231;29;20051;-83
2022/12/11 06:51:40;;;;;;;60.60;16.52;;;0.30;99.90;;;;;;4924065;29;20055;-83
2022/12/11 06:54:06;;;;;;;59.47;16.88;;;0.30;99.90;;;;;;4955750;29;20066;-83
2022/12/11 06:56:33;;;;;;;68.82;17.83;;;0.30;99.90;;;;;;4923802;29;20047;-83
2022/12/11 06:58:59;;;;;;;60.78;17.75;;;0.30;99.90;;;;;;4924124;29;20202;-83
2022/12/11 07:01:25;;;;;;;60.95;16.75;;;1.60;99.90;;;;;;4955353;29;20531;-82
2022/12/11 07:03:52;;;;;;;63.30;16.80;;;0.30;99.90;;;;;;4923105;29;20082;-83
2022/12/11 07:06:18;;;;;;;58.75;16.30;;;0.30;99.90;;;;;;4923348;29;20070;-84
2022/12/11 07:08:44;;;;;;;61.88;16.27;;;0.30;99.90;;;;;;4939680;29;20039;-83
2022/12/11 07:11:11;;;;;;;58.60;16.13;;;0.50;99.90;;;;;;4938998;29;20475;-83
2022/12/11 07:13:37;;;;;;;63.25;18.58;;;1.80;99.90;;;;;;4923888;29;20125;-83
2022/12/11 07:16:08;;;;;;;62.20;16.83;;;0.30;99.90;;;;;;4923165;29;20054;-83
2022/12/11 07:18:34;;;;;;;56.17;16.55;;;0.30;99.90;;;;;;4924444;29;20475;-83
2022/12/11 07:21:00;;;;;;;57.25;15.98;;;1.70;99.90;;;;;;4938719;29;20146;-83
2022/12/11 07:23:28;;;;;;;59.00;16.73;;;0.30;99.90;;;;;;4922657;29;20091;-83
2022/12/11 07:25:55;;;;;;;54.20;16.08;;;0.30;99.90;;;;;;4922753;29;20089;-83
2022/12/11 07:28:20;;;;;;;59.22;16.65;;;0.30;99.90;;;;;;4907405;29;20479;-83
2022/12/11 07:30:46;;;;;;;60.30;16.00;;;0.90;99.90;;;;;;4938991;29;20110;-83
2022/12/11 07:33:12;;;;;;;57.45;16.33;;;1.50;99.90;;;;;;4939435;29;20130;-83
2022/12/11 07:35:37;;;;;;;57.33;16.48;;;1.40;99.90;;;;;;4938547;29;20091;-84
2022/12/11 07:38:03;;;;;;;50.40;17.40;;;0.30;99.90;;;;;;4923342;29;20094;-83
2022/12/11 07:40:29;;;;;;;60.13;16.77;;;0.30;99.90;;;;;;4954648;29;20058;-84
2022/12/11 07:42:54;;;;;;;59.55;17.13;;;0.30;99.90;;;;;;4923342;29;20047;-83
2022/12/11 07:45:20;;;;;;;60.85;16.35;;;0.30;99.90;;;;;;4939004;29;20526;-83
2022/12/11 07:47:46;;;;;;;58.90;16.77;;;0.60;99.90;;;;;;4954527;29;20057;-83
2022/12/11 07:50:11;;;;;;;68.32;17.35;;;1.50;99.90;;;;;;4938794;29;20082;-83
2022/12/11 07:52:37;;;;;;;64.78;18.15;;;1.50;99.90;;;;;;4938625;29;20479;-84
2022/12/11 07:55:03;;;;;;;58.22;16.88;;;0.80;99.90;;;;;;4954276;29;20573;-84
2022/12/11 07:57:28;;;;;;;60.67;17.25;;;0.30;99.90;;;;;;4922753;29;20051;-84
2022/12/11 07:59:54;;;;;;;61.55;17.52;;;0.30;99.90;;;;;;4954146;29;20043;-84
2022/12/11 08:02:20;;;;;;;59.85;17.48;;;1.10;99.90;;;;;;4938588;29;20055;-84
2022/12/11 08:04:46;;;;;;;56.78;17.70;;;1.80;99.90;;;;;;4922615;29;20051;-84
2022/12/11 08:07:12;;;;;;;65.40;19.67;;;1.70;99.90;;;;;;4907536;29;20138;-83
2022/12/11 08:09:38;;;;;;;62.55;17.35;;;1.30;99.90;;;;;;4922697;29;20070;-82
2022/12/11 08:12:04;;;;;;;62.58;16.27;;;0.30;99.90;;;;;;4922875;29;20168;-82
2022/12/11 08:14:29;;;;;;;66.80;17.67;;;0.30;99.90;;;;;;4922452;29;20070;-84
2022/12/11 08:16:56;;;;;;;64.93;18.25;;;0.30;99.90;;;;;;4938685;29;20043;-84
2022/12/11 08:19:22;;;;;;;64.78;17.25;;;0.30;99.90;;;;;;4923070;29;20058;-84
2022/12/11 08:21:47;;;;;;;64.82;17.63;;;0.30;99.90;;;;;;4956796;28;20063;-83
2022/12/11 08:24:15;;;;;;;65.60;18.23;;;0.30;99.90;;;;;;4942911;29;20052;-83
2022/12/11 08:26:41;;;;;;;64.65;17.25;;;0.60;99.90;;;;;;4957922;29;20492;-83
2022/12/11 08:29:06;;;;;;;65.57;17.85;;;1.70;99.90;;;;;;4926161;29;20047;-83
2022/12/11 08:31:32;;;;;;;73.25;18.02;;;0.30;99.90;;;;;;4926052;29;20050;-83
2022/12/11 08:33:58;;;;;;;71.72;17.15;;;0.90;99.90;;;;;;4957989;29;20051;-83
2022/12/11 08:36:24;;;;;;;57.95;17.48;;;0.30;99.90;;;;;;4925793;29;20134;-83
2022/12/11 08:38:50;;;;;;;65.60;18.85;;;1.00;99.90;;;;;;4942033;29;20051;-83
2022/12/11 08:41:20;;;;;;;63.30;18.92;;;0.30;99.90;;;;;;4926376;29;20102;-84
2022/12/11 08:43:47;;;;;;;65.63;17.98;;;1.50;99.90;;;;;;4925924;29;20103;-84
2022/12/11 08:46:13;;;;;;;74.65;20.20;;;1.40;99.90;;;;;;4925803;29;20118;-83
2022/12/11 08:48:39;;;;;;;77.53;17.92;;;1.30;99.90;;;;;;4925968;29;20086;-84
2022/12/11 08:51:08;;;;;;;69.05;18.70;;;0.30;99.90;;;;;;4925636;29;20055;-86
2022/12/11 08:53:34;;;;;;;68.45;19.05;;;0.30;99.90;;;;;;4925489;29;20472;-85
2022/12/11 08:56:04;;;;;;;65.82;18.85;;;1.70;99.90;;;;;;4925974;29;20071;-83
2022/12/11 08:58:29;;;;;;;72.50;17.23;;;0.30;99.90;;;;;;4925154;29;20131;-84
2022/12/11 09:00:55;;;;;;;79.55;18.98;;;1.00;99.90;;;;;;4941407;29;20090;-87
2022/12/11 09:03:21;;;;;;;70.55;17.67;;;1.50;99.90;;;;;;4940876;29;20058;-84
2022/12/11 09:05:46;;;;;;;69.65;19.02;;;1.20;99.90;;;;;;4925313;29;20109;-83
2022/12/11 09:08:12;;;;;;;65.18;18.52;;;1.40;99.90;;;;;;4940849;29;20082;-83
2022/12/11 09:10:39;;;;;;;65.72;18.13;;;0.40;99.90;;;;;;4909982;29;20066;-84
2022/12/11 09:13:05;;;;;;;69.00;18.05;;;0.40;99.90;;;;;;4941194;29;20054;-84
2022/12/11 09:15:30;;;;;;;75.03;19.65;;;0.40;99.90;;;;;;4926022;29;20428;-83
2022/12/11 09:17:56;;;;;;;64.38;18.33;;;1.10;99.90;;;;;;4941337;29;20531;-84
2022/12/11 09:20:22;;;;;;;77.63;19.08;;;0.70;99.90;;;;;;4941033;29;20047;-84
2022/12/11 09:22:49;;;;;;;77.72;18.27;;;0.40;99.90;;;;;;4940817;29;20074;-83
2022/12/11 09:25:15;;;;;;;63.05;18.08;;;1.70;99.90;;;;;;4941233;29;20043;-83
2022/12/11 09:27:41;;;;;;;66.85;17.35;;;1.70;99.90;;;;;;4956777;29;20051;-84
2022/12/11 09:30:07;;;;;;;71.53;19.65;;;0.40;99.90;;;;;;4925171;29;20054;-85
2022/12/11 09:32:33;;;;;;;59.47;17.98;;;1.10;99.90;;;;;;4940860;29;20130;-85
2022/12/11 09:34:59;;;;;;;71.78;19.45;;;1.30;99.90;;;;;;4941445;29;20143;-86
2022/12/11 09:37:24;;;;;;;78.72;19.90;;;0.40;99.90;;;;;;4940710;29;20493;-83
2022/12/11 09:39:50;;;;;;;66.57;18.35;;;0.40;99.90;;;;;;4924858;29;20507;-84
2022/12/11 09:42:35;;;;;;;79.20;21.45;;;0.40;99.90;;;;;;4940805;29;20039;-84
2022/12/11 09:45:02;;;;;;;75.60;20.00;;;0.40;99.90;;;;;;4910623;29;20395;-85
2022/12/11 09:47:41;;;;;;;68.88;19.80;;;0.40;99.90;;;;;;4909611;29;20498;-84
2022/12/11 09:50:10;;;;;;;90.82;22.90;;;1.40;99.90;;;;;;4925353;29;20044;-84
2022/12/11 09:52:56;;;;;;;74.28;20.50;;;0.90;99.90;;;;;;4940411;29;20069;-85
2022/12/11 09:55:23;;;;;;;82.18;21.15;;;0.80;99.90;;;;;;4940626;29;20055;-84
2022/12/11 09:57:56;;;;;;;75.25;20.58;;;0.60;99.90;;;;;;4924501;29;20106;-85
2022/12/11 10:00:27;;;;;;;76.55;19.25;;;0.50;99.90;;;;;;4940919;29;20081;-84
2022/12/11 10:02:59;;;;;;;73.72;20.63;;;0.50;99.90;;;;;;4956249;29;20098;-84
2022/12/11 10:05:34;;;;;;;72.85;20.55;;;0.50;99.90;;;;;;4956169;29;20051;-83
2022/12/11 10:08:15;;;;;;;74.10;21.45;;;0.50;99.90;;;;;;4925298;29;20053;-83
2022/12/11 10:10:43;;;;;;;65.15;18.85;;;0.50;99.90;;;;;;4940252;29;20547;-84
2022/12/11 10:13:26;;;;;;;71.15;20.05;;;1.70;99.90;;;;;;4924565;29;20055;-83
2022/12/11 10:15:59;;;;;;;67.20;19.55;;;0.50;99.90;;;;;;4956230;29;20059;-84
2022/12/11 10:18:25;;;;;;;60.88;20.35;;;0.60;99.90;;;;;;4924569;29;20134;-83
2022/12/11 10:20:52;;;;;;;70.00;20.23;;;0.50;99.90;;;;;;4924215;29;20047;-84
2022/12/11 10:23:52;;;;;;;78.32;21.35;;;0.50;99.90;;;;;;4939199;29;20138;-84
2022/12/11 10:26:23;;;;;;;70.65;19.40;;;0.50;99.90;;;;;;4906073;29;20142;-83
2022/12/11 10:28:49;;;;;;;71.43;20.20;;;1.20;99.90;;;;;;4908247;29;20387;-84
2022/12/11 10:31:34;;;;;;;67.97;19.95;;;1.20;99.90;;;;;;4924278;29;20126;-85
2022/12/11 10:34:16;;;;;;;65.03;19.55;;;0.50;99.90;;;;;;4939559;29;20043;-84
2022/12/11 10:36:42;;;;;;;78.95;21.92;;;1.40;99.90;;;;;;4938840;29;20506;-84
2022/12/11 10:39:18;;;;;;;83.78;21.50;;;1.90;99.90;;;;;;4939317;29;20047;-85
2022/12/11 10:41:45;;;;;;;62.40;19.40;;;0.50;99.90;;;;;;4923736;29;20051;-84
2022/12/11 10:44:25;;;;;;;74.53;20.02;;;1.30;99.90;;;;;;4939598;29;20055;-84
2022/12/11 10:47:11;;;;;;;75.57;18.75;;;0.60;99.90;;;;;;4939275;29;20058;-85
2022/12/11 10:49:39;;;;;;;66.95;19.52;;;0.60;99.90;;;;;;4940200;29;20048;-84
2022/12/11 10:52:24;;;;;;;66.45;20.67;;;1.80;99.90;;;;;;4923843;29;20416;-85
2022/12/11 10:55:01;;;;;;;67.38;19.73;;;1.80;99.90;;;;;;4909730;29;20043;-84
2022/12/11 10:57:31;;;;;;;62.58;19.30;;;0.60;99.90;;;;;;4908760;29;20133;-85
2022/12/11 10:59:57;;;;;;;66.32;19.77;;;0.60;99.90;;;;;;4909648;29;20058;-85
2022/12/11 11:02:39;;;;;;;67.38;19.35;;;0.60;99.90;;;;;;4907357;29;20055;-84
2022/12/11 11:05:28;;;;;;;61.40;17.55;;;0.60;99.90;;;;;;4939372;29;20106;-84
2022/12/11 11:08:11;;;;;;;65.75;19.88;;;0.60;99.90;;;;;;4924218;29;20043;-84
2022/12/11 11:10:37;;;;;;;60.28;19.27;;;0.60;99.90;;;;;;4908962;29;20089;-85
2022/12/11 11:13:02;;;;;;;70.15;19.98;;;0.60;99.90;;;;;;4923271;29;20497;-85
2022/12/11 11:15:29;;;;;;;70.22;21.33;;;1.60;99.90;;;;;;4923359;29;20051;-86
2022/12/11 11:18:02;;;;;;;56.15;18.25;;;0.60;99.90;;;;;;4923503;29;20059;-86
2022/12/11 11:20:29;;;;;;;64.82;19.42;;;2.20;99.90;;;;;;4924311;29;20109;-86
2022/12/11 11:23:02;;;;;;;62.60;19.83;;;1.30;99.90;;;;;;4922048;29;20526;-85
2022/12/11 11:25:28;;;;;;;59.75;18.50;;;0.60;99.90;;;;;;4923318;29;20062;-85
2022/12/11 11:27:56;;;;;;;63.03;19.52;;;0.60;99.90;;;;;;4907252;29;20043;-84
2022/12/11 11:30:27;;;;;;;61.25;18.85;;;0.60;99.90;;;;;;4907002;29;20057;-85
2022/12/11 11:32:59;;;;;;;58.28;19.17;;;0.60;99.90;;;;;;4923661;29;20383;-85
2022/12/11 11:35:26;;;;;;;62.17;19.85;;;0.60;99.90;;;;;;4923829;29;20051;-85
2022/12/11 11:38:15;;;;;;;60.08;19.58;;;0.60;99.90;;;;;;4938568;29;20082;-84
2022/12/11 11:41:16;;;;;;;64.60;20.02;;;2.10;99.90;;;;;;4929304;29;20066;-86
2022/12/11 11:43:47;;;;;;;66.78;20.23;;;0.70;99.90;;;;;;4938555;29;20051;-85
2022/12/11 11:46:14;;;;;;;65.70;21.20;;;0.60;99.90;;;;;;4923342;29;20106;-85
2022/12/11 11:48:48;;;;;;;62.58;19.55;;;0.60;99.90;;;;;;4938913;29;20051;-85
2022/12/11 11:51:35;;;;;;;59.88;19.67;;;0.60;99.90;;;;;;4907521;29;20055;-85
2022/12/11 11:54:02;;;;;;;56.95;20.08;;;0.70;99.90;;;;;;4923234;29;20054;-85
2022/12/11 11:56:35;;;;;;;56.17;19.08;;;1.50;99.90;;;;;;4908687;29;20203;-85
2022/12/11 11:59:19;;;;;;;50.65;18.15;;;2.00;99.90;;;;;;4927423;29;20075;-85
2022/12/11 12:01:45;;;;;;;59.10;18.70;;;0.70;99.90;;;;;;4958428;29;20145;-84
2022/12/11 12:04:11;;;;;;;59.60;18.77;;;0.70;99.90;;;;;;4910631;29;20107;-85
2022/12/11 12:06:56;;;;;;;60.47;18.55;;;0.70;99.90;;;;;;4942498;29;20043;-86
2022/12/11 12:09:57;;;;;;;58.92;20.77;;;1.80;99.90;;;;;;4942595;29;20055;-85
2022/12/11 12:12:28;;;;;;;60.75;20.48;;;0.70;99.90;;;;;;4957363;29;20074;-85
2022/12/11 12:15:24;;;;;;;61.42;19.35;;;0.70;99.90;;;;;;4942748;29;20368;-85
2022/12/11 12:18:08;;;;;;;58.95;20.40;;;0.70;99.90;;;;;;4941900;29;20134;-84
2022/12/11 12:20:39;;;;;;;60.45;18.58;;;0.70;99.90;;;;;;4957557;29;20051;-84
2022/12/11 12:23:26;;;;;;;67.50;19.70;;;0.70;99.90;;;;;;4941944;29;20098;-84
2022/12/11 12:26:14;;;;;;;61.47;18.45;;;0.70;99.90;;;;;;4957771;29;20059;-85
2022/12/11 12:29:01;;;;;;;58.50;18.85;;;0.70;99.90;;;;;;4928509;29;20145;-85
2022/12/11 12:31:54;;;;;;;59.72;19.75;;;0.70;99.90;;;;;;4957709;29;20048;-86
2022/12/11 12:34:51;;;;;;;67.90;20.15;;;0.70;99.90;;;;;;4927756;29;20054;-85
2022/12/11 12:37:44;;;;;;;58.40;18.85;;;0.70;99.90;;;;;;4957759;29;20043;-84
2022/12/11 12:40:33;;;;;;;62.72;21.00;;;0.70;99.90;;;;;;4941877;29;20501;-85
2022/12/11 12:43:20;;;;;;;59.13;19.20;;;0.70;99.90;;;;;;4942248;29;20059;-84
2022/12/11 12:46:24;;;;;;;56.85;18.75;;;0.70;99.90;;;;;;4941298;29;20133;-85
2022/12/11 12:48:50;;;;;;;65.30;20.83;;;0.70;99.90;;;;;;4944792;29;20150;-84
2022/12/11 12:51:16;;;;;;;62.35;20.02;;;1.70;99.90;;;;;;4941479;29;20087;-85
2022/12/11 12:53:46;;;;;;;62.40;20.98;;;0.70;99.90;;;;;;4925671;29;20055;-84
2022/12/11 12:56:11;;;;;;;63.72;19.55;;;1.40;99.90;;;;;;4910225;29;20062;-85
2022/12/11 12:58:42;;;;;;;64.90;21.92;;;1.60;99.90;;;;;;4925382;29;20047;-85
2022/12/11 13:01:08;;;;;;;54.85;19.50;;;0.90;99.90;;;;;;4926276;29;20061;-85